sensor_id;sensor_type;location;lat;lon;timestamp;temperature;humidity
70456;DHT22;57916;51.996;5.180;2022-10-12T00:02:21;13.10;62.10
70456;DHT22;57916;51.996;5.180;2022-10-12T00:04:48;13.10;62.10
70456;DHT22;57916;51.996;5.180;2022-10-12T00:07:15;13.10;62.10
70456;DHT22;57916;51.996;5.180;2022-10-12T00:09:42;13.10;62.30
70456;DHT22;57916;51.996;5.180;2022-10-12T00:12:09;13.10;62.20
70456;DHT22;57916;51.996;5.180;2022-10-12T00:14:36;13.10;62.00
70456;DHT22;57916;51.996;5.180;2022-10-12T00:17:03;13.10;62.10
70456;DHT22;57916;51.996;5.180;2022-10-12T00:19:30;13.10;62.00
70456;DHT22;57916;51.996;5.180;2022-10-12T00:21:57;13.00;62.00
70456;DHT22;57916;51.996;5.180;2022-10-12T00:24:24;13.00;62.00
70456;DHT22;57916;51.996;5.180;2022-10-12T00:26:51;13.10;63.00
70456;DHT22;57916;51.996;5.180;2022-10-12T00:29:18;13.00;62.20
70456;DHT22;57916;51.996;5.180;2022-10-12T00:36:21;13.00;62.50
70456;DHT22;57916;51.996;5.180;2022-10-12T00:38:49;12.90;61.70
70456;DHT22;57916;51.996;5.180;2022-10-12T00:41:18;12.90;61.70
70456;DHT22;57916;51.996;5.180;2022-10-12T00:43:47;12.90;61.80
70456;DHT22;57916;51.996;5.180;2022-10-12T00:46:22;12.90;61.70
70456;DHT22;57916;51.996;5.180;2022-10-12T00:49:22;12.90;61.70
70456;DHT22;57916;51.996;5.180;2022-10-12T00:51:57;12.80;62.20
70456;DHT22;57916;51.996;5.180;2022-10-12T00:54:29;12.80;62.20
70456;DHT22;57916;51.996;5.180;2022-10-12T00:56:59;12.80;62.20
70456;DHT22;57916;51.996;5.180;2022-10-12T01:02:30;12.80;61.90
70456;DHT22;57916;51.996;5.180;2022-10-12T01:04:59;12.80;61.80
70456;DHT22;57916;51.996;5.180;2022-10-12T01:07:26;12.70;62.00
70456;DHT22;57916;51.996;5.180;2022-10-12T01:09:53;12.70;62.30
70456;DHT22;57916;51.996;5.180;2022-10-12T01:12:21;12.70;62.40
70456;DHT22;57916;51.996;5.180;2022-10-12T01:14:48;12.70;62.70
70456;DHT22;57916;51.996;5.180;2022-10-12T01:34:52;12.70;62.30
70456;DHT22;57916;51.996;5.180;2022-10-12T01:39:59;12.60;62.60
70456;DHT22;57916;51.996;5.180;2022-10-12T01:42:38;12.60;62.70
70456;DHT22;57916;51.996;5.180;2022-10-12T01:45:09;12.60;62.70
70456;DHT22;57916;51.996;5.180;2022-10-12T01:47:38;12.60;62.70
70456;DHT22;57916;51.996;5.180;2022-10-12T01:50:07;12.60;62.20
70456;DHT22;57916;51.996;5.180;2022-10-12T01:58:53;12.60;62.00
70456;DHT22;57916;51.996;5.180;2022-10-12T02:01:13;12.60;62.60
70456;DHT22;57916;51.996;5.180;2022-10-12T02:03:48;12.50;63.30
70456;DHT22;57916;51.996;5.180;2022-10-12T02:06:18;12.40;64.50
70456;DHT22;57916;51.996;5.180;2022-10-12T02:09:02;12.40;63.20
70456;DHT22;57916;51.996;5.180;2022-10-12T02:11:33;12.40;63.00
70456;DHT22;57916;51.996;5.180;2022-10-12T02:14:11;12.40;62.90
70456;DHT22;57916;51.996;5.180;2022-10-12T02:17:00;12.40;62.80
70456;DHT22;57916;51.996;5.180;2022-10-12T02:19:30;12.40;63.00
70456;DHT22;57916;51.996;5.180;2022-10-12T02:22:01;12.40;63.10
70456;DHT22;57916;51.996;5.180;2022-10-12T02:24:30;12.40;63.00
70456;DHT22;57916;51.996;5.180;2022-10-12T02:26:59;12.40;63.10
70456;DHT22;57916;51.996;5.180;2022-10-12T02:29:31;12.40;63.30
70456;DHT22;57916;51.996;5.180;2022-10-12T02:32:19;12.40;64.40
70456;DHT22;57916;51.996;5.180;2022-10-12T02:35:07;12.40;64.10
70456;DHT22;57916;51.996;5.180;2022-10-12T02:37:54;12.50;63.90
70456;DHT22;57916;51.996;5.180;2022-10-12T02:40:40;12.40;63.80
70456;DHT22;57916;51.996;5.180;2022-10-12T02:43:16;12.50;63.70
70456;DHT22;57916;51.996;5.180;2022-10-12T02:45:46;12.50;63.70
70456;DHT22;57916;51.996;5.180;2022-10-12T02:48:20;12.50;63.70
70456;DHT22;57916;51.996;5.180;2022-10-12T02:50:52;12.50;63.70
70456;DHT22;57916;51.996;5.180;2022-10-12T02:53:20;12.50;63.60
70456;DHT22;57916;51.996;5.180;2022-10-12T02:55:53;12.50;63.40
70456;DHT22;57916;51.996;5.180;2022-10-12T02:58:21;12.50;63.30
70456;DHT22;57916;51.996;5.180;2022-10-12T03:00:48;12.50;63.50
70456;DHT22;57916;51.996;5.180;2022-10-12T03:03:15;12.50;63.70
70456;DHT22;57916;51.996;5.180;2022-10-12T03:05:42;12.50;63.60
70456;DHT22;57916;51.996;5.180;2022-10-12T03:08:09;12.50;63.10
70456;DHT22;57916;51.996;5.180;2022-10-12T03:10:36;12.50;63.30
70456;DHT22;57916;51.996;5.180;2022-10-12T03:13:03;12.50;63.30
70456;DHT22;57916;51.996;5.180;2022-10-12T03:15:30;12.40;63.20
70456;DHT22;57916;51.996;5.180;2022-10-12T03:17:57;12.40;64.10
70456;DHT22;57916;51.996;5.180;2022-10-12T03:20:24;12.40;63.30
70456;DHT22;57916;51.996;5.180;2022-10-12T03:22:51;12.40;63.50
70456;DHT22;57916;51.996;5.180;2022-10-12T03:25:18;12.40;63.40
70456;DHT22;57916;51.996;5.180;2022-10-12T03:27:45;12.40;63.40
70456;DHT22;57916;51.996;5.180;2022-10-12T03:30:12;12.40;63.50
70456;DHT22;57916;51.996;5.180;2022-10-12T03:32:39;12.40;63.50
70456;DHT22;57916;51.996;5.180;2022-10-12T03:35:07;12.40;63.50
70456;DHT22;57916;51.996;5.180;2022-10-12T03:37:34;12.40;63.30
70456;DHT22;57916;51.996;5.180;2022-10-12T03:40:01;12.40;63.30
70456;DHT22;57916;51.996;5.180;2022-10-12T03:42:28;12.40;63.20
70456;DHT22;57916;51.996;5.180;2022-10-12T03:44:55;12.40;63.00
70456;DHT22;57916;51.996;5.180;2022-10-12T03:47:21;12.30;63.00
70456;DHT22;57916;51.996;5.180;2022-10-12T03:49:48;12.30;63.10
70456;DHT22;57916;51.996;5.180;2022-10-12T03:52:15;12.30;63.10
70456;DHT22;57916;51.996;5.180;2022-10-12T03:54:42;12.30;63.10
70456;DHT22;57916;51.996;5.180;2022-10-12T03:57:09;12.30;63.10
70456;DHT22;57916;51.996;5.180;2022-10-12T03:59:36;12.30;63.10
70456;DHT22;57916;51.996;5.180;2022-10-12T04:02:03;12.30;63.10
70456;DHT22;57916;51.996;5.180;2022-10-12T04:04:30;12.20;62.90
70456;DHT22;57916;51.996;5.180;2022-10-12T04:06:57;12.20;62.70
70456;DHT22;57916;51.996;5.180;2022-10-12T04:09:24;12.20;63.30
70456;DHT22;57916;51.996;5.180;2022-10-12T04:11:50;12.20;62.40
70456;DHT22;57916;51.996;5.180;2022-10-12T04:14:17;12.10;62.50
70456;DHT22;57916;51.996;5.180;2022-10-12T04:16:44;12.10;62.40
70456;DHT22;57916;51.996;5.180;2022-10-12T04:19:12;12.10;62.60
70456;DHT22;57916;51.996;5.180;2022-10-12T04:21:39;12.00;62.80
70456;DHT22;57916;51.996;5.180;2022-10-12T04:24:06;12.00;62.80
70456;DHT22;57916;51.996;5.180;2022-10-12T04:26:33;12.00;62.80
70456;DHT22;57916;51.996;5.180;2022-10-12T04:29:00;12.00;62.50
70456;DHT22;57916;51.996;5.180;2022-10-12T04:31:27;12.00;62.40
70456;DHT22;57916;51.996;5.180;2022-10-12T04:33:54;12.00;62.40
70456;DHT22;57916;51.996;5.180;2022-10-12T04:36:25;11.90;62.50
70456;DHT22;57916;51.996;5.180;2022-10-12T04:38:53;11.90;62.70
70456;DHT22;57916;51.996;5.180;2022-10-12T04:41:26;11.90;62.90
70456;DHT22;57916;51.996;5.180;2022-10-12T04:43:53;11.90;63.00
70456;DHT22;57916;51.996;5.180;2022-10-12T04:46:20;11.90;63.20
70456;DHT22;57916;51.996;5.180;2022-10-12T04:48:47;11.90;63.20
70456;DHT22;57916;51.996;5.180;2022-10-12T04:51:14;11.80;63.10
70456;DHT22;57916;51.996;5.180;2022-10-12T04:53:41;11.80;63.20
70456;DHT22;57916;51.996;5.180;2022-10-12T04:56:08;11.90;63.20
70456;DHT22;57916;51.996;5.180;2022-10-12T04:58:35;11.80;63.10
70456;DHT22;57916;51.996;5.180;2022-10-12T05:01:02;11.80;63.10
70456;DHT22;57916;51.996;5.180;2022-10-12T05:03:29;11.80;63.30
70456;DHT22;57916;51.996;5.180;2022-10-12T05:05:56;11.80;63.30
70456;DHT22;57916;51.996;5.180;2022-10-12T05:08:23;11.80;63.30
70456;DHT22;57916;51.996;5.180;2022-10-12T05:10:50;11.70;63.40
70456;DHT22;57916;51.996;5.180;2022-10-12T05:13:17;11.70;63.60
70456;DHT22;57916;51.996;5.180;2022-10-12T05:15:44;11.80;63.60
70456;DHT22;57916;51.996;5.180;2022-10-12T05:18:11;11.70;63.30
70456;DHT22;57916;51.996;5.180;2022-10-12T05:20:37;11.70;63.00
70456;DHT22;57916;51.996;5.180;2022-10-12T05:23:04;11.70;63.00
70456;DHT22;57916;51.996;5.180;2022-10-12T05:25:31;11.70;63.10
70456;DHT22;57916;51.996;5.180;2022-10-12T05:28:00;11.70;63.30
70456;DHT22;57916;51.996;5.180;2022-10-12T05:30:27;11.70;63.30
70456;DHT22;57916;51.996;5.180;2022-10-12T05:32:54;11.70;63.30
70456;DHT22;57916;51.996;5.180;2022-10-12T05:35:21;11.70;63.30
70456;DHT22;57916;51.996;5.180;2022-10-12T05:37:48;11.70;63.20
70456;DHT22;57916;51.996;5.180;2022-10-12T05:40:15;11.70;63.30
70456;DHT22;57916;51.996;5.180;2022-10-12T05:42:42;11.70;63.30
70456;DHT22;57916;51.996;5.180;2022-10-12T05:45:11;11.70;63.20
70456;DHT22;57916;51.996;5.180;2022-10-12T05:47:38;11.60;63.00
70456;DHT22;57916;51.996;5.180;2022-10-12T05:50:06;11.70;63.10
70456;DHT22;57916;51.996;5.180;2022-10-12T05:52:33;11.60;63.30
70456;DHT22;57916;51.996;5.180;2022-10-12T05:55:02;11.60;63.60
70456;DHT22;57916;51.996;5.180;2022-10-12T05:57:29;11.60;63.30
70456;DHT22;57916;51.996;5.180;2022-10-12T05:59:56;11.60;63.20
70456;DHT22;57916;51.996;5.180;2022-10-12T06:02:23;11.60;63.30
70456;DHT22;57916;51.996;5.180;2022-10-12T06:04:50;11.60;63.70
70456;DHT22;57916;51.996;5.180;2022-10-12T06:07:17;11.60;63.80
70456;DHT22;57916;51.996;5.180;2022-10-12T06:09:43;11.60;63.90
70456;DHT22;57916;51.996;5.180;2022-10-12T06:12:11;11.60;63.80
70456;DHT22;57916;51.996;5.180;2022-10-12T06:14:38;11.60;63.80
70456;DHT22;57916;51.996;5.180;2022-10-12T06:17:05;11.70;64.00
70456;DHT22;57916;51.996;5.180;2022-10-12T06:19:33;11.60;63.90
70456;DHT22;57916;51.996;5.180;2022-10-12T06:22:00;11.70;64.10
70456;DHT22;57916;51.996;5.180;2022-10-12T06:24:27;11.70;64.20
70456;DHT22;57916;51.996;5.180;2022-10-12T06:26:54;11.70;64.00
70456;DHT22;57916;51.996;5.180;2022-10-12T06:29:21;11.70;64.40
70456;DHT22;57916;51.996;5.180;2022-10-12T06:31:50;11.80;64.30
70456;DHT22;57916;51.996;5.180;2022-10-12T06:34:18;11.80;63.40
70456;DHT22;57916;51.996;5.180;2022-10-12T06:36:44;11.80;63.40
70456;DHT22;57916;51.996;5.180;2022-10-12T06:39:11;11.80;63.60
70456;DHT22;57916;51.996;5.180;2022-10-12T06:41:38;11.80;63.50
70456;DHT22;57916;51.996;5.180;2022-10-12T06:44:07;11.80;63.40
70456;DHT22;57916;51.996;5.180;2022-10-12T06:46:34;11.80;63.40
70456;DHT22;57916;51.996;5.180;2022-10-12T06:49:01;11.80;63.60
70456;DHT22;57916;51.996;5.180;2022-10-12T06:51:29;11.90;63.80
70456;DHT22;57916;51.996;5.180;2022-10-12T06:53:56;11.90;63.80
70456;DHT22;57916;51.996;5.180;2022-10-12T06:56:23;11.90;63.90
70456;DHT22;57916;51.996;5.180;2022-10-12T06:58:56;11.90;64.00
70456;DHT22;57916;51.996;5.180;2022-10-12T07:01:23;11.90;64.10
70456;DHT22;57916;51.996;5.180;2022-10-12T07:03:50;11.90;64.50
70456;DHT22;57916;51.996;5.180;2022-10-12T07:06:17;11.90;64.30
70456;DHT22;57916;51.996;5.180;2022-10-12T07:08:44;12.00;64.40
70456;DHT22;57916;51.996;5.180;2022-10-12T07:11:12;12.00;64.40
70456;DHT22;57916;51.996;5.180;2022-10-12T07:13:39;12.10;64.50
70456;DHT22;57916;51.996;5.180;2022-10-12T07:16:07;12.10;64.30
70456;DHT22;57916;51.996;5.180;2022-10-12T07:18:34;12.10;64.30
70456;DHT22;57916;51.996;5.180;2022-10-12T07:21:01;12.20;64.90
70456;DHT22;57916;51.996;5.180;2022-10-12T07:23:30;12.20;65.60
70456;DHT22;57916;51.996;5.180;2022-10-12T07:25:57;12.30;66.80
70456;DHT22;57916;51.996;5.180;2022-10-12T07:28:25;12.40;67.60
70456;DHT22;57916;51.996;5.180;2022-10-12T07:30:53;12.70;67.50
70456;DHT22;57916;51.996;5.180;2022-10-12T07:33:20;13.20;68.00
70456;DHT22;57916;51.996;5.180;2022-10-12T07:35:54;13.60;67.30
70456;DHT22;57916;51.996;5.180;2022-10-12T07:38:41;14.10;66.60
70456;DHT22;57916;51.996;5.180;2022-10-12T07:41:13;14.60;65.20
70456;DHT22;57916;51.996;5.180;2022-10-12T07:43:58;14.90;64.30
70456;DHT22;57916;51.996;5.180;2022-10-12T07:46:24;15.20;62.30
70456;DHT22;57916;51.996;5.180;2022-10-12T07:48:51;15.30;61.10
70456;DHT22;57916;51.996;5.180;2022-10-12T07:51:18;15.30;60.60
70456;DHT22;57916;51.996;5.180;2022-10-12T07:53:45;15.40;60.50
70456;DHT22;57916;51.996;5.180;2022-10-12T07:56:13;15.30;60.20
70456;DHT22;57916;51.996;5.180;2022-10-12T07:58:42;15.20;60.50
70456;DHT22;57916;51.996;5.180;2022-10-12T08:01:09;15.20;61.00
70456;DHT22;57916;51.996;5.180;2022-10-12T08:03:54;15.10;61.10
70456;DHT22;57916;51.996;5.180;2022-10-12T08:06:29;14.90;61.10
70456;DHT22;57916;51.996;5.180;2022-10-12T08:08:58;14.80;61.80
70456;DHT22;57916;51.996;5.180;2022-10-12T08:11:25;14.70;61.80
70456;DHT22;57916;51.996;5.180;2022-10-12T08:13:52;14.70;62.60
70456;DHT22;57916;51.996;5.180;2022-10-12T08:16:20;14.60;62.90
70456;DHT22;57916;51.996;5.180;2022-10-12T08:18:47;14.60;62.70
70456;DHT22;57916;51.996;5.180;2022-10-12T08:21:15;14.70;62.90
70456;DHT22;57916;51.996;5.180;2022-10-12T08:23:42;14.80;62.80
70456;DHT22;57916;51.996;5.180;2022-10-12T08:26:12;14.80;62.80
70456;DHT22;57916;51.996;5.180;2022-10-12T08:28:39;14.90;63.60
70456;DHT22;57916;51.996;5.180;2022-10-12T08:31:08;15.10;63.40
70456;DHT22;57916;51.996;5.180;2022-10-12T08:33:37;15.20;61.90
70456;DHT22;57916;51.996;5.180;2022-10-12T08:36:05;15.20;62.00
70456;DHT22;57916;51.996;5.180;2022-10-12T08:38:33;15.30;61.90
70456;DHT22;57916;51.996;5.180;2022-10-12T08:47:37;15.30;61.60
70456;DHT22;57916;51.996;5.180;2022-10-12T08:50:13;15.20;61.30
70456;DHT22;57916;51.996;5.180;2022-10-12T08:52:50;15.20;61.30
70456;DHT22;57916;51.996;5.180;2022-10-12T08:55:38;15.20;61.90
70456;DHT22;57916;51.996;5.180;2022-10-12T08:58:16;15.20;62.10
70456;DHT22;57916;51.996;5.180;2022-10-12T09:01:17;15.30;61.90
70456;DHT22;57916;51.996;5.180;2022-10-12T09:14:57;17.50;58.30
70456;DHT22;57916;51.996;5.180;2022-10-12T09:17:31;17.80;57.70
70456;DHT22;57916;51.996;5.180;2022-10-12T09:20:03;18.30;55.60
70456;DHT22;57916;51.996;5.180;2022-10-12T09:22:33;18.60;54.70
70456;DHT22;57916;51.996;5.180;2022-10-12T09:25:01;18.80;53.40
70456;DHT22;57916;51.996;5.180;2022-10-12T09:27:30;19.10;52.60
70456;DHT22;57916;51.996;5.180;2022-10-12T09:30:01;19.30;52.10
70456;DHT22;57916;51.996;5.180;2022-10-12T09:35:14;19.50;50.50
70456;DHT22;57916;51.996;5.180;2022-10-12T09:37:43;19.70;50.30
70456;DHT22;57916;51.996;5.180;2022-10-12T09:40:26;19.70;50.00
70456;DHT22;57916;51.996;5.180;2022-10-12T09:42:55;19.80;50.30
70456;DHT22;57916;51.996;5.180;2022-10-12T09:45:24;19.80;49.60
70456;DHT22;57916;51.996;5.180;2022-10-12T09:48:11;19.90;49.50
70456;DHT22;57916;51.996;5.180;2022-10-12T09:50:57;19.90;48.70
70456;DHT22;57916;51.996;5.180;2022-10-12T09:53:29;20.00;49.40
70456;DHT22;57916;51.996;5.180;2022-10-12T09:56:26;20.20;49.70
70456;DHT22;57916;51.996;5.180;2022-10-12T09:59:00;20.40;49.10
70456;DHT22;57916;51.996;5.180;2022-10-12T10:01:29;20.50;48.70
70456;DHT22;57916;51.996;5.180;2022-10-12T10:04:15;20.60;47.50
70456;DHT22;57916;51.996;5.180;2022-10-12T10:06:44;20.50;47.70
70456;DHT22;57916;51.996;5.180;2022-10-12T10:11:57;20.50;47.50
70456;DHT22;57916;51.996;5.180;2022-10-12T10:14:36;20.50;48.30
70456;DHT22;57916;51.996;5.180;2022-10-12T10:17:03;20.70;47.90
70456;DHT22;57916;51.996;5.180;2022-10-12T10:19:30;20.90;47.20
70456;DHT22;57916;51.996;5.180;2022-10-12T10:22:04;21.20;46.80
70456;DHT22;57916;51.996;5.180;2022-10-12T10:24:32;21.30;46.50
70456;DHT22;57916;51.996;5.180;2022-10-12T10:27:05;21.50;45.50
70456;DHT22;57916;51.996;5.180;2022-10-12T10:29:40;21.60;46.70
70456;DHT22;57916;51.996;5.180;2022-10-12T10:32:21;21.80;45.50
70456;DHT22;57916;51.996;5.180;2022-10-12T10:37:45;22.00;44.60
70456;DHT22;57916;51.996;5.180;2022-10-12T10:40:25;22.00;43.70
70456;DHT22;57916;51.996;5.180;2022-10-12T10:43:19;22.10;44.00
70456;DHT22;57916;51.996;5.180;2022-10-12T10:45:51;22.20;43.60
70456;DHT22;57916;51.996;5.180;2022-10-12T10:48:27;22.20;44.00
70456;DHT22;57916;51.996;5.180;2022-10-12T10:51:04;22.30;42.50
70456;DHT22;57916;51.996;5.180;2022-10-12T10:53:47;22.30;43.30
70456;DHT22;57916;51.996;5.180;2022-10-12T10:56:25;22.30;42.70
70456;DHT22;57916;51.996;5.180;2022-10-12T10:58:56;22.30;42.70
70456;DHT22;57916;51.996;5.180;2022-10-12T11:01:36;22.30;42.50
70456;DHT22;57916;51.996;5.180;2022-10-12T11:04:31;22.20;42.30
70456;DHT22;57916;51.996;5.180;2022-10-12T11:07:00;22.10;42.50
70456;DHT22;57916;51.996;5.180;2022-10-12T11:09:36;21.80;40.80
70456;DHT22;57916;51.996;5.180;2022-10-12T11:12:11;21.50;41.90
70456;DHT22;57916;51.996;5.180;2022-10-12T11:14:43;21.30;42.70
70456;DHT22;57916;51.996;5.180;2022-10-12T11:17:32;21.10;42.90
70456;DHT22;57916;51.996;5.180;2022-10-12T11:22:53;20.60;44.50
70456;DHT22;57916;51.996;5.180;2022-10-12T11:28:15;20.20;45.70
70456;DHT22;57916;51.996;5.180;2022-10-12T11:30:47;20.10;47.50
70456;DHT22;57916;51.996;5.180;2022-10-12T11:33:27;20.00;45.50
70456;DHT22;57916;51.996;5.180;2022-10-12T11:35:57;19.90;45.80
70456;DHT22;57916;51.996;5.180;2022-10-12T11:38:44;19.70;46.80
70456;DHT22;57916;51.996;5.180;2022-10-12T11:41:19;19.70;47.90
70456;DHT22;57916;51.996;5.180;2022-10-12T11:46:55;19.60;47.80
70456;DHT22;57916;51.996;5.180;2022-10-12T11:52:10;19.50;47.80
70456;DHT22;57916;51.996;5.180;2022-10-12T11:55:39;19.50;48.10
70456;DHT22;57916;51.996;5.180;2022-10-12T11:57:39;19.40;48.70
70456;DHT22;57916;51.996;5.180;2022-10-12T12:00:16;19.40;49.00
70456;DHT22;57916;51.996;5.180;2022-10-12T12:02:49;19.40;49.70
70456;DHT22;57916;51.996;5.180;2022-10-12T12:05:19;19.40;49.40
70456;DHT22;57916;51.996;5.180;2022-10-12T12:07:47;19.40;50.60
70456;DHT22;57916;51.996;5.180;2022-10-12T12:13:06;19.60;50.80
70456;DHT22;57916;51.996;5.180;2022-10-12T12:18:28;19.70;49.10
70456;DHT22;57916;51.996;5.180;2022-10-12T12:21:08;19.70;48.70
70456;DHT22;57916;51.996;5.180;2022-10-12T12:23:40;19.60;48.40
70456;DHT22;57916;51.996;5.180;2022-10-12T12:26:15;19.60;48.40
70456;DHT22;57916;51.996;5.180;2022-10-12T12:28:44;19.60;49.70
70456;DHT22;57916;51.996;5.180;2022-10-12T12:33:57;19.60;49.30
70456;DHT22;57916;51.996;5.180;2022-10-12T12:36:37;19.60;49.70
70456;DHT22;57916;51.996;5.180;2022-10-12T12:39:07;19.60;49.50
70456;DHT22;57916;51.996;5.180;2022-10-12T12:44:43;19.60;48.30
70456;DHT22;57916;51.996;5.180;2022-10-12T12:49:59;19.50;49.30
70456;DHT22;57916;51.996;5.180;2022-10-12T12:52:30;19.50;50.40
70456;DHT22;57916;51.996;5.180;2022-10-12T12:55:14;19.50;50.40
70456;DHT22;57916;51.996;5.180;2022-10-12T13:00:35;19.40;49.60
70456;DHT22;57916;51.996;5.180;2022-10-12T13:03:58;19.30;50.00
70456;DHT22;57916;51.996;5.180;2022-10-12T13:09:38;19.50;52.60
70456;DHT22;57916;51.996;5.180;2022-10-12T13:15:20;19.70;51.50
70456;DHT22;57916;51.996;5.180;2022-10-12T13:21:22;19.70;49.80
70456;DHT22;57916;51.996;5.180;2022-10-12T13:24:02;19.70;48.80
70456;DHT22;57916;51.996;5.180;2022-10-12T13:26:31;19.70;49.70
70456;DHT22;57916;51.996;5.180;2022-10-12T13:29:00;19.70;50.30
70456;DHT22;57916;51.996;5.180;2022-10-12T13:31:36;19.70;50.80
70456;DHT22;57916;51.996;5.180;2022-10-12T13:34:27;19.70;50.90
70456;DHT22;57916;51.996;5.180;2022-10-12T13:37:00;19.70;51.10
70456;DHT22;57916;51.996;5.180;2022-10-12T13:39:40;19.80;50.30
70456;DHT22;57916;51.996;5.180;2022-10-12T13:42:17;19.80;50.00
70456;DHT22;57916;51.996;5.180;2022-10-12T13:44:46;19.80;50.50
70456;DHT22;57916;51.996;5.180;2022-10-12T13:47:28;19.90;50.70
70456;DHT22;57916;51.996;5.180;2022-10-12T13:49:57;19.90;50.70
70456;DHT22;57916;51.996;5.180;2022-10-12T13:52:30;19.90;50.50
70456;DHT22;57916;51.996;5.180;2022-10-12T13:54:59;19.90;51.10
70456;DHT22;57916;51.996;5.180;2022-10-12T13:57:38;19.90;51.30
70456;DHT22;57916;51.996;5.180;2022-10-12T14:02:40;19.90;49.70
70456;DHT22;57916;51.996;5.180;2022-10-12T14:05:22;19.90;50.20
70456;DHT22;57916;51.996;5.180;2022-10-12T14:07:51;19.90;50.90
70456;DHT22;57916;51.996;5.180;2022-10-12T14:10:35;19.80;49.30
70456;DHT22;57916;51.996;5.180;2022-10-12T14:13:03;19.80;49.70
70456;DHT22;57916;51.996;5.180;2022-10-12T14:15:34;19.80;49.50
70456;DHT22;57916;51.996;5.180;2022-10-12T14:18:02;19.70;49.30
70456;DHT22;57916;51.996;5.180;2022-10-12T14:20:32;19.70;49.60
70456;DHT22;57916;51.996;5.180;2022-10-12T14:23:03;19.70;49.80
70456;DHT22;57916;51.996;5.180;2022-10-12T14:25:31;19.60;50.30
70456;DHT22;57916;51.996;5.180;2022-10-12T14:30:43;19.60;50.00
70456;DHT22;57916;51.996;5.180;2022-10-12T14:35:44;19.40;49.60
70456;DHT22;57916;51.996;5.180;2022-10-12T14:41:35;19.40;50.00
70456;DHT22;57916;51.996;5.180;2022-10-12T14:44:15;19.30;50.20
70456;DHT22;57916;51.996;5.180;2022-10-12T14:46:53;19.30;50.80
70456;DHT22;57916;51.996;5.180;2022-10-12T14:49:26;19.20;51.80
70456;DHT22;57916;51.996;5.180;2022-10-12T14:51:58;19.20;51.80
70456;DHT22;57916;51.996;5.180;2022-10-12T14:54:25;19.20;51.80
70456;DHT22;57916;51.996;5.180;2022-10-12T14:56:52;19.20;52.60
70456;DHT22;57916;51.996;5.180;2022-10-12T14:59:19;19.20;52.50
70456;DHT22;57916;51.996;5.180;2022-10-12T15:01:46;19.30;52.10
70456;DHT22;57916;51.996;5.180;2022-10-12T15:04:17;19.20;52.00
70456;DHT22;57916;51.996;5.180;2022-10-12T15:06:44;19.20;52.60
70456;DHT22;57916;51.996;5.180;2022-10-12T15:09:16;19.20;52.60
70456;DHT22;57916;51.996;5.180;2022-10-12T15:11:43;19.20;53.50
70456;DHT22;57916;51.996;5.180;2022-10-12T15:14:10;19.30;53.40
70456;DHT22;57916;51.996;5.180;2022-10-12T15:16:37;19.30;53.40
70456;DHT22;57916;51.996;5.180;2022-10-12T15:19:04;19.30;53.80
70456;DHT22;57916;51.996;5.180;2022-10-12T15:21:31;19.30;53.30
70456;DHT22;57916;51.996;5.180;2022-10-12T15:23:58;19.30;52.90
70456;DHT22;57916;51.996;5.180;2022-10-12T15:26:25;19.30;52.80
70456;DHT22;57916;51.996;5.180;2022-10-12T15:28:52;19.20;51.80
70456;DHT22;57916;51.996;5.180;2022-10-12T15:31:19;19.20;52.10
70456;DHT22;57916;51.996;5.180;2022-10-12T15:33:46;19.20;51.80
70456;DHT22;57916;51.996;5.180;2022-10-12T15:36:13;19.20;52.30
70456;DHT22;57916;51.996;5.180;2022-10-12T15:38:40;19.10;51.90
70456;DHT22;57916;51.996;5.180;2022-10-12T15:41:15;19.10;52.00
70456;DHT22;57916;51.996;5.180;2022-10-12T15:43:43;19.10;52.20
70456;DHT22;57916;51.996;5.180;2022-10-12T15:46:12;19.00;52.30
70456;DHT22;57916;51.996;5.180;2022-10-12T15:48:39;19.00;52.40
70456;DHT22;57916;51.996;5.180;2022-10-12T15:51:18;19.00;52.40
70456;DHT22;57916;51.996;5.180;2022-10-12T15:53:46;19.00;52.60
70456;DHT22;57916;51.996;5.180;2022-10-12T15:56:14;19.00;53.20
70456;DHT22;57916;51.996;5.180;2022-10-12T15:58:42;19.00;53.40
70456;DHT22;57916;51.996;5.180;2022-10-12T16:01:16;19.00;53.80
70456;DHT22;57916;51.996;5.180;2022-10-12T16:03:45;19.00;53.80
70456;DHT22;57916;51.996;5.180;2022-10-12T16:06:13;19.00;54.00
70456;DHT22;57916;51.996;5.180;2022-10-12T16:08:40;19.00;54.30
70456;DHT22;57916;51.996;5.180;2022-10-12T16:11:11;19.00;54.10
70456;DHT22;57916;51.996;5.180;2022-10-12T16:13:39;19.00;53.70
70456;DHT22;57916;51.996;5.180;2022-10-12T16:16:35;19.00;53.80
70456;DHT22;57916;51.996;5.180;2022-10-12T16:19:02;19.00;53.90
70456;DHT22;57916;51.996;5.180;2022-10-12T16:21:29;18.90;53.90
70456;DHT22;57916;51.996;5.180;2022-10-12T16:23:56;18.90;53.70
70456;DHT22;57916;51.996;5.180;2022-10-12T16:26:23;18.90;54.30
70456;DHT22;57916;51.996;5.180;2022-10-12T16:28:49;18.80;54.40
70456;DHT22;57916;51.996;5.180;2022-10-12T16:31:17;18.80;54.70
70456;DHT22;57916;51.996;5.180;2022-10-12T16:33:44;18.80;55.00
70456;DHT22;57916;51.996;5.180;2022-10-12T16:36:13;18.70;55.10
70456;DHT22;57916;51.996;5.180;2022-10-12T16:38:42;18.70;55.30
70456;DHT22;57916;51.996;5.180;2022-10-12T16:41:13;18.60;55.40
70456;DHT22;57916;51.996;5.180;2022-10-12T16:43:42;18.60;55.70
70456;DHT22;57916;51.996;5.180;2022-10-12T16:46:10;18.50;55.80
70456;DHT22;57916;51.996;5.180;2022-10-12T16:48:37;18.50;55.80
70456;DHT22;57916;51.996;5.180;2022-10-12T16:51:08;18.40;55.80
70456;DHT22;57916;51.996;5.180;2022-10-12T16:53:35;18.30;55.90
70456;DHT22;57916;51.996;5.180;2022-10-12T16:56:03;18.30;56.10
70456;DHT22;57916;51.996;5.180;2022-10-12T16:58:30;18.20;56.30
70456;DHT22;57916;51.996;5.180;2022-10-12T17:00:57;18.10;56.50
70456;DHT22;57916;51.996;5.180;2022-10-12T17:03:24;18.10;56.70
70456;DHT22;57916;51.996;5.180;2022-10-12T17:06:09;18.00;56.60
70456;DHT22;57916;51.996;5.180;2022-10-12T17:08:36;18.00;56.90
70456;DHT22;57916;51.996;5.180;2022-10-12T17:11:09;17.90;57.00
70456;DHT22;57916;51.996;5.180;2022-10-12T17:13:38;17.90;57.10
70456;DHT22;57916;51.996;5.180;2022-10-12T17:16:09;17.80;57.40
70456;DHT22;57916;51.996;5.180;2022-10-12T17:18:59;17.70;57.40
70456;DHT22;57916;51.996;5.180;2022-10-12T17:21:26;17.70;57.60
70456;DHT22;57916;51.996;5.180;2022-10-12T17:23:57;17.70;57.90
70456;DHT22;57916;51.996;5.180;2022-10-12T20:36:29;15.80;61.60
70456;DHT22;57916;51.996;5.180;2022-10-12T20:38:57;15.80;61.70
70456;DHT22;57916;51.996;5.180;2022-10-12T20:41:24;15.80;61.70
70456;DHT22;57916;51.996;5.180;2022-10-12T20:43:55;15.80;61.80
70456;DHT22;57916;51.996;5.180;2022-10-12T20:46:23;15.80;61.80
70456;DHT22;57916;51.996;5.180;2022-10-12T20:48:53;15.80;61.80
70456;DHT22;57916;51.996;5.180;2022-10-12T20:51:27;15.70;61.80
70456;DHT22;57916;51.996;5.180;2022-10-12T20:53:55;15.70;62.00